sensor_id;sensor_type;location;lat;lon;timestamp;temperature;humidity
3308;DHT22;1666;48.898;9.182;2023-04-01T00:00:57;8.90;2.90
3308;DHT22;1666;48.898;9.182;2023-04-01T00:03:27;8.80;3.10
3308;DHT22;1666;48.898;9.182;2023-04-01T00:05:58;8.80;2.60
3308;DHT22;1666;48.898;9.182;2023-04-01T00:08:29;8.90;2.40
3308;DHT22;1666;48.898;9.182;2023-04-01T00:10:59;8.90;1.90
3308;DHT22;1666;48.898;9.182;2023-04-01T00:13:29;8.90;2.00
3308;DHT22;1666;48.898;9.182;2023-04-01T00:16:02;8.90;2.20
3308;DHT22;1666;48.898;9.182;2023-04-01T00:18:47;8.90;1.00
3308;DHT22;1666;48.898;9.182;2023-04-01T00:21:19;8.90;1.30
3308;DHT22;1666;48.898;9.182;2023-04-01T00:23:49;8.90;1.30
3308;DHT22;1666;48.898;9.182;2023-04-01T00:26:20;8.90;1.30
3308;DHT22;1666;48.898;9.182;2023-04-01T00:28:51;9.00;1.60
3308;DHT22;1666;48.898;9.182;2023-04-01T00:31:25;9.00;2.00
3308;DHT22;1666;48.898;9.182;2023-04-01T00:33:55;9.00;2.40
3308;DHT22;1666;48.898;9.182;2023-04-01T00:36:24;8.90;2.90
3308;DHT22;1666;48.898;9.182;2023-04-01T00:38:54;9.00;2.80
3308;DHT22;1666;48.898;9.182;2023-04-01T00:41:25;8.90;2.70
3308;DHT22;1666;48.898;9.182;2023-04-01T00:44:17;8.90;2.60
3308;DHT22;1666;48.898;9.182;2023-04-01T00:46:51;8.90;2.10
3308;DHT22;1666;48.898;9.182;2023-04-01T00:49:24;8.90;2.50
3308;DHT22;1666;48.898;9.182;2023-04-01T00:51:57;8.90;1.90
3308;DHT22;1666;48.898;9.182;2023-04-01T00:54:30;8.90;1.50
3308;DHT22;1666;48.898;9.182;2023-04-01T00:57:03;9.00;1.20
3308;DHT22;1666;48.898;9.182;2023-04-01T00:59:39;9.00;1.30
3308;DHT22;1666;48.898;9.182;2023-04-01T01:02:14;9.10;1.00
3308;DHT22;1666;48.898;9.182;2023-04-01T01:04:45;9.10;1.00
3308;DHT22;1666;48.898;9.182;2023-04-01T01:07:22;9.10;1.00
3308;DHT22;1666;48.898;9.182;2023-04-01T01:10:02;9.20;1.00
3308;DHT22;1666;48.898;9.182;2023-04-01T01:12:40;9.20;1.00
3308;DHT22;1666;48.898;9.182;2023-04-01T01:15:16;9.20;1.00
3308;DHT22;1666;48.898;9.182;2023-04-01T01:17:56;9.20;1.00
3308;DHT22;1666;48.898;9.182;2023-04-01T01:20:49;9.20;1.00
3308;DHT22;1666;48.898;9.182;2023-04-01T01:24:00;9.20;1.00
3308;DHT22;1666;48.898;9.182;2023-04-01T01:26:44;9.20;1.00
3308;DHT22;1666;48.898;9.182;2023-04-01T01:32:21;9.20;1.00
3308;DHT22;1666;48.898;9.182;2023-04-01T01:35:07;9.20;1.00
3308;DHT22;1666;48.898;9.182;2023-04-01T01:37:40;9.20;1.00
3308;DHT22;1666;48.898;9.182;2023-04-01T01:40:13;9.20;1.00
3308;DHT22;1666;48.898;9.182;2023-04-01T01:42:47;9.20;1.00
3308;DHT22;1666;48.898;9.182;2023-04-01T01:45:20;9.20;1.00
3308;DHT22;1666;48.898;9.182;2023-04-01T01:47:51;9.20;1.00
3308;DHT22;1666;48.898;9.182;2023-04-01T01:50:25;9.20;1.00
3308;DHT22;1666;48.898;9.182;2023-04-01T01:53:01;9.20;1.00
3308;DHT22;1666;48.898;9.182;2023-04-01T01:55:33;9.20;1.00
3308;DHT22;1666;48.898;9.182;2023-04-01T01:58:09;9.20;1.00
3308;DHT22;1666;48.898;9.182;2023-04-01T02:00:44;9.20;1.00
3308;DHT22;1666;48.898;9.182;2023-04-01T02:03:15;9.20;2.80
3308;DHT22;1666;48.898;9.182;2023-04-01T02:05:51;9.20;4.30
3308;DHT22;1666;48.898;9.182;2023-04-01T02:08:25;9.10;5.10
3308;DHT22;1666;48.898;9.182;2023-04-01T02:10:59;9.10;7.00
3308;DHT22;1666;48.898;9.182;2023-04-01T02:13:37;9.00;7.80
3308;DHT22;1666;48.898;9.182;2023-04-01T02:16:13;9.00;7.80
3308;DHT22;1666;48.898;9.182;2023-04-01T02:18:48;8.90;7.90
3308;DHT22;1666;48.898;9.182;2023-04-01T02:21:24;8.90;9.00
3308;DHT22;1666;48.898;9.182;2023-04-01T02:23:57;8.90;9.10
3308;DHT22;1666;48.898;9.182;2023-04-01T02:26:27;8.90;8.80
3308;DHT22;1666;48.898;9.182;2023-04-01T02:28:59;8.90;7.80
3308;DHT22;1666;48.898;9.182;2023-04-01T02:31:31;8.90;7.80
3308;DHT22;1666;48.898;9.182;2023-04-01T02:34:02;8.90;7.30
3308;DHT22;1666;48.898;9.182;2023-04-01T02:36:36;8.90;7.80
3308;DHT22;1666;48.898;9.182;2023-04-01T02:39:06;8.90;7.80
3308;DHT22;1666;48.898;9.182;2023-04-01T02:41:41;8.90;5.80
3308;DHT22;1666;48.898;9.182;2023-04-01T02:44:13;9.00;4.90
3308;DHT22;1666;48.898;9.182;2023-04-01T02:46:43;9.00;4.70
3308;DHT22;1666;48.898;9.182;2023-04-01T02:49:13;9.00;4.70
3308;DHT22;1666;48.898;9.182;2023-04-01T02:51:46;8.90;4.90
3308;DHT22;1666;48.898;9.182;2023-04-01T02:54:15;9.00;5.10
3308;DHT22;1666;48.898;9.182;2023-04-01T02:56:45;8.90;4.90
3308;DHT22;1666;48.898;9.182;2023-04-01T02:59:15;8.90;5.50
3308;DHT22;1666;48.898;9.182;2023-04-01T03:01:45;8.90;5.40
3308;DHT22;1666;48.898;9.182;2023-04-01T03:04:15;8.90;5.30
3308;DHT22;1666;48.898;9.182;2023-04-01T03:06:47;8.90;5.50
3308;DHT22;1666;48.898;9.182;2023-04-01T03:09:18;8.80;4.90
3308;DHT22;1666;48.898;9.182;2023-04-01T03:11:48;8.80;4.60
3308;DHT22;1666;48.898;9.182;2023-04-01T03:14:18;8.70;5.90
3308;DHT22;1666;48.898;9.182;2023-04-01T03:16:48;8.70;5.40
3308;DHT22;1666;48.898;9.182;2023-04-01T03:19:18;8.70;5.30
3308;DHT22;1666;48.898;9.182;2023-04-01T03:21:50;8.70;5.00
3308;DHT22;1666;48.898;9.182;2023-04-01T03:24:20;8.70;5.00
3308;DHT22;1666;48.898;9.182;2023-04-01T03:26:50;8.70;5.10
3308;DHT22;1666;48.898;9.182;2023-04-01T03:29:20;8.70;4.80
3308;DHT22;1666;48.898;9.182;2023-04-01T03:31:49;8.70;3.70
3308;DHT22;1666;48.898;9.182;2023-04-01T03:34:19;8.70;2.90
3308;DHT22;1666;48.898;9.182;2023-04-01T03:36:52;8.70;2.10
3308;DHT22;1666;48.898;9.182;2023-04-01T03:39:22;8.70;1.20
3308;DHT22;1666;48.898;9.182;2023-04-01T03:41:52;8.70;2.20
3308;DHT22;1666;48.898;9.182;2023-04-01T03:44:22;8.60;3.30
3308;DHT22;1666;48.898;9.182;2023-04-01T03:46:52;8.50;3.60
3308;DHT22;1666;48.898;9.182;2023-04-01T03:49:22;8.50;3.80
3308;DHT22;1666;48.898;9.182;2023-04-01T03:51:54;8.40;4.00
3308;DHT22;1666;48.898;9.182;2023-04-01T03:54:24;8.40;4.70
3308;DHT22;1666;48.898;9.182;2023-04-01T03:56:54;8.40;5.00
3308;DHT22;1666;48.898;9.182;2023-04-01T03:59:25;8.40;5.30
3308;DHT22;1666;48.898;9.182;2023-04-01T04:01:54;8.50;4.00
3308;DHT22;1666;48.898;9.182;2023-04-01T04:04:24;8.40;4.00
3308;DHT22;1666;48.898;9.182;2023-04-01T04:06:57;8.30;4.60
3308;DHT22;1666;48.898;9.182;2023-04-01T04:09:27;8.40;4.30
3308;DHT22;1666;48.898;9.182;2023-04-01T04:11:59;8.30;3.70
3308;DHT22;1666;48.898;9.182;2023-04-01T04:14:29;8.30;4.10
3308;DHT22;1666;48.898;9.182;2023-04-01T04:16:59;8.30;2.70
3308;DHT22;1666;48.898;9.182;2023-04-01T04:19:31;8.30;3.00
3308;DHT22;1666;48.898;9.182;2023-04-01T04:22:05;8.30;2.50
3308;DHT22;1666;48.898;9.182;2023-04-01T04:24:35;8.40;1.40
3308;DHT22;1666;48.898;9.182;2023-04-01T04:27:06;8.40;1.10
3308;DHT22;1666;48.898;9.182;2023-04-01T04:29:35;8.40;1.00
3308;DHT22;1666;48.898;9.182;2023-04-01T04:32:05;8.50;1.00
3308;DHT22;1666;48.898;9.182;2023-04-01T04:34:35;8.50;1.00
3308;DHT22;1666;48.898;9.182;2023-04-01T04:37:08;8.50;1.00
3308;DHT22;1666;48.898;9.182;2023-04-01T04:39:37;8.50;1.00
3308;DHT22;1666;48.898;9.182;2023-04-01T04:42:07;8.50;1.00
3308;DHT22;1666;48.898;9.182;2023-04-01T04:44:37;8.60;1.00
3308;DHT22;1666;48.898;9.182;2023-04-01T04:47:08;8.50;1.00
3308;DHT22;1666;48.898;9.182;2023-04-01T04:49:38;8.50;1.00
3308;DHT22;1666;48.898;9.182;2023-04-01T04:52:10;8.40;1.00
3308;DHT22;1666;48.898;9.182;2023-04-01T04:54:40;8.40;1.00
3308;DHT22;1666;48.898;9.182;2023-04-01T04:57:10;8.40;1.00
3308;DHT22;1666;48.898;9.182;2023-04-01T04:59:40;8.40;1.00
3308;DHT22;1666;48.898;9.182;2023-04-01T05:02:10;8.40;1.00
3308;DHT22;1666;48.898;9.182;2023-04-01T05:04:41;8.40;1.00
3308;DHT22;1666;48.898;9.182;2023-04-01T05:07:13;8.30;1.00
3308;DHT22;1666;48.898;9.182;2023-04-01T05:09:43;8.30;1.00
3308;DHT22;1666;48.898;9.182;2023-04-01T05:12:14;8.30;1.00
3308;DHT22;1666;48.898;9.182;2023-04-01T05:14:44;8.30;1.00
3308;DHT22;1666;48.898;9.182;2023-04-01T05:17:14;8.30;1.00
3308;DHT22;1666;48.898;9.182;2023-04-01T05:19:44;8.30;1.00
3308;DHT22;1666;48.898;9.182;2023-04-01T05:22:16;8.30;1.00
3308;DHT22;1666;48.898;9.182;2023-04-01T05:24:47;8.30;1.00
3308;DHT22;1666;48.898;9.182;2023-04-01T05:27:17;8.30;1.00
3308;DHT22;1666;48.898;9.182;2023-04-01T05:29:47;8.40;1.00
3308;DHT22;1666;48.898;9.182;2023-04-01T05:32:17;8.40;1.00
3308;DHT22;1666;48.898;9.182;2023-04-01T05:34:46;8.50;1.00
3308;DHT22;1666;48.898;9.182;2023-04-01T05:37:22;8.50;1.00
3308;DHT22;1666;48.898;9.182;2023-04-01T05:39:52;8.50;1.00
3308;DHT22;1666;48.898;9.182;2023-04-01T05:42:22;8.60;1.00
3308;DHT22;1666;48.898;9.182;2023-04-01T05:44:52;8.60;1.00
3308;DHT22;1666;48.898;9.182;2023-04-01T05:47:22;8.60;1.00
3308;DHT22;1666;48.898;9.182;2023-04-01T05:49:52;8.70;1.00
3308;DHT22;1666;48.898;9.182;2023-04-01T05:52:24;8.80;1.00
3308;DHT22;1666;48.898;9.182;2023-04-01T05:54:54;8.80;1.00
3308;DHT22;1666;48.898;9.182;2023-04-01T05:57:25;8.90;1.00
3308;DHT22;1666;48.898;9.182;2023-04-01T05:59:55;8.90;1.00
3308;DHT22;1666;48.898;9.182;2023-04-01T06:02:25;9.00;1.00
3308;DHT22;1666;48.898;9.182;2023-04-01T06:05:02;9.00;1.00
3308;DHT22;1666;48.898;9.182;2023-04-01T06:07:35;9.10;1.00
3308;DHT22;1666;48.898;9.182;2023-04-01T06:10:12;9.20;1.00
3308;DHT22;1666;48.898;9.182;2023-04-01T06:12:50;9.20;1.00
3308;DHT22;1666;48.898;9.182;2023-04-01T06:15:30;9.30;1.00
3308;DHT22;1666;48.898;9.182;2023-04-01T06:18:18;9.30;1.00
3308;DHT22;1666;48.898;9.182;2023-04-01T06:20:55;9.40;1.00
3308;DHT22;1666;48.898;9.182;2023-04-01T06:23:51;9.50;1.00
3308;DHT22;1666;48.898;9.182;2023-04-01T06:26:30;9.40;1.00
3308;DHT22;1666;48.898;9.182;2023-04-01T06:29:24;9.60;1.00
3308;DHT22;1666;48.898;9.182;2023-04-01T06:32:09;9.50;1.00
3308;DHT22;1666;48.898;9.182;2023-04-01T06:34:58;9.60;1.00
3308;DHT22;1666;48.898;9.182;2023-04-01T06:37:45;9.60;1.00
3308;DHT22;1666;48.898;9.182;2023-04-01T06:40:43;9.70;1.00
3308;DHT22;1666;48.898;9.182;2023-04-01T06:43:18;9.70;1.00
3308;DHT22;1666;48.898;9.182;2023-04-01T06:45:54;9.70;1.00
3308;DHT22;1666;48.898;9.182;2023-04-01T06:48:39;9.80;1.00
3308;DHT22;1666;48.898;9.182;2023-04-01T06:51:20;9.80;1.00
3308;DHT22;1666;48.898;9.182;2023-04-01T06:53:56;9.80;1.00
3308;DHT22;1666;48.898;9.182;2023-04-01T06:56:33;9.70;1.00
3308;DHT22;1666;48.898;9.182;2023-04-01T06:59:10;9.80;1.00
3308;DHT22;1666;48.898;9.182;2023-04-01T07:01:45;9.80;1.00
3308;DHT22;1666;48.898;9.182;2023-04-01T07:04:17;9.80;1.00
3308;DHT22;1666;48.898;9.182;2023-04-01T07:06:53;9.80;1.00
3308;DHT22;1666;48.898;9.182;2023-04-01T07:09:27;9.80;1.00
3308;DHT22;1666;48.898;9.182;2023-04-01T07:12:07;9.90;1.00
3308;DHT22;1666;48.898;9.182;2023-04-01T07:14:41;9.90;1.00
3308;DHT22;1666;48.898;9.182;2023-04-01T07:17:16;10.00;1.00
3308;DHT22;1666;48.898;9.182;2023-04-01T07:19:50;9.90;1.00
3308;DHT22;1666;48.898;9.182;2023-04-01T07:22:23;9.80;1.00
3308;DHT22;1666;48.898;9.182;2023-04-01T07:24:55;9.90;1.00
3308;DHT22;1666;48.898;9.182;2023-04-01T07:27:29;9.90;1.00
3308;DHT22;1666;48.898;9.182;2023-04-01T07:30:01;9.90;1.00
3308;DHT22;1666;48.898;9.182;2023-04-01T07:32:39;9.90;1.00
3308;DHT22;1666;48.898;9.182;2023-04-01T07:35:25;9.90;1.00
3308;DHT22;1666;48.898;9.182;2023-04-01T07:38:09;9.90;1.00
3308;DHT22;1666;48.898;9.182;2023-04-01T07:40:47;9.80;1.00
3308;DHT22;1666;48.898;9.182;2023-04-01T07:43:35;9.90;1.00
3308;DHT22;1666;48.898;9.182;2023-04-01T07:46:20;9.90;1.00
3308;DHT22;1666;48.898;9.182;2023-04-01T07:48:55;10.00;1.00
3308;DHT22;1666;48.898;9.182;2023-04-01T07:51:31;10.00;1.00
3308;DHT22;1666;48.898;9.182;2023-04-01T07:54:09;10.00;1.00
3308;DHT22;1666;48.898;9.182;2023-04-01T07:56:46;10.00;1.00
3308;DHT22;1666;48.898;9.182;2023-04-01T07:59:29;10.10;1.00
3308;DHT22;1666;48.898;9.182;2023-04-01T08:02:10;10.20;1.00
3308;DHT22;1666;48.898;9.182;2023-04-01T08:04:55;10.20;1.00
3308;DHT22;1666;48.898;9.182;2023-04-01T08:07:30;10.30;1.00
3308;DHT22;1666;48.898;9.182;2023-04-01T08:10:06;10.20;1.00
3308;DHT22;1666;48.898;9.182;2023-04-01T08:12:48;10.40;1.00
3308;DHT22;1666;48.898;9.182;2023-04-01T08:15:27;10.40;1.00
3308;DHT22;1666;48.898;9.182;2023-04-01T08:18:05;10.40;1.00
3308;DHT22;1666;48.898;9.182;2023-04-01T08:20:41;10.30;1.00
3308;DHT22;1666;48.898;9.182;2023-04-01T08:23:16;10.40;1.00
3308;DHT22;1666;48.898;9.182;2023-04-01T08:25:50;10.50;1.00
3308;DHT22;1666;48.898;9.182;2023-04-01T08:28:24;10.50;1.00
3308;DHT22;1666;48.898;9.182;2023-04-01T08:31:01;10.40;1.00
3308;DHT22;1666;48.898;9.182;2023-04-01T08:33:33;10.30;1.00
3308;DHT22;1666;48.898;9.182;2023-04-01T08:36:07;10.40;1.00
3308;DHT22;1666;48.898;9.182;2023-04-01T08:38:41;10.40;1.00
3308;DHT22;1666;48.898;9.182;2023-04-01T08:44:24;10.00;1.00
3308;DHT22;1666;48.898;9.182;2023-04-01T08:47:22;10.00;1.00
3308;DHT22;1666;48.898;9.182;2023-04-01T08:52:49;9.80;3.10
3308;DHT22;1666;48.898;9.182;2023-04-01T08:55:31;9.70;3.30
3308;DHT22;1666;48.898;9.182;2023-04-01T08:58:24;9.70;3.90
3308;DHT22;1666;48.898;9.182;2023-04-01T09:01:14;9.70;4.20
3308;DHT22;1666;48.898;9.182;2023-04-01T09:04:13;9.70;4.60
3308;DHT22;1666;48.898;9.182;2023-04-01T09:06:56;9.80;4.70
3308;DHT22;1666;48.898;9.182;2023-04-01T09:09:44;9.70;4.10
3308;DHT22;1666;48.898;9.182;2023-04-01T09:12:31;9.80;4.00
3308;DHT22;1666;48.898;9.182;2023-04-01T09:15:30;9.90;2.70
3308;DHT22;1666;48.898;9.182;2023-04-01T09:18:19;10.00;1.00
3308;DHT22;1666;48.898;9.182;2023-04-01T09:21:04;10.10;1.00
3308;DHT22;1666;48.898;9.182;2023-04-01T09:23:58;10.20;1.00
3308;DHT22;1666;48.898;9.182;2023-04-01T09:26:44;10.40;1.00
3308;DHT22;1666;48.898;9.182;2023-04-01T09:29:34;10.50;1.00
3308;DHT22;1666;48.898;9.182;2023-04-01T09:32:26;10.70;1.00
3308;DHT22;1666;48.898;9.182;2023-04-01T09:35:14;10.80;1.00
3308;DHT22;1666;48.898;9.182;2023-04-01T09:38:02;10.70;1.00
3308;DHT22;1666;48.898;9.182;2023-04-01T09:40:36;10.60;1.00
3308;DHT22;1666;48.898;9.182;2023-04-01T09:43:30;10.40;1.00
3308;DHT22;1666;48.898;9.182;2023-04-01T09:46:26;10.50;1.00
3308;DHT22;1666;48.898;9.182;2023-04-01T09:49:13;10.50;1.00
3308;DHT22;1666;48.898;9.182;2023-04-01T09:51:57;10.40;1.00
3308;DHT22;1666;48.898;9.182;2023-04-01T09:54:55;10.50;1.00
3308;DHT22;1666;48.898;9.182;2023-04-01T09:57:46;10.70;1.00
3308;DHT22;1666;48.898;9.182;2023-04-01T10:03:52;10.60;1.00
3308;DHT22;1666;48.898;9.182;2023-04-01T10:06:46;10.60;1.00
3308;DHT22;1666;48.898;9.182;2023-04-01T10:09:42;10.50;1.00
3308;DHT22;1666;48.898;9.182;2023-04-01T10:12:30;10.60;1.00
3308;DHT22;1666;48.898;9.182;2023-04-01T10:15:29;10.60;1.00
3308;DHT22;1666;48.898;9.182;2023-04-01T10:18:21;10.50;1.00
3308;DHT22;1666;48.898;9.182;2023-04-01T10:21:13;10.60;1.00
3308;DHT22;1666;48.898;9.182;2023-04-01T10:24:05;10.70;1.00
3308;DHT22;1666;48.898;9.182;2023-04-01T10:26:59;10.70;1.00
3308;DHT22;1666;48.898;9.182;2023-04-01T10:29:57;10.50;1.00
3308;DHT22;1666;48.898;9.182;2023-04-01T10:32:58;10.50;1.00
3308;DHT22;1666;48.898;9.182;2023-04-01T10:51:20;10.60;1.00
3308;DHT22;1666;48.898;9.182;2023-04-01T10:56:55;10.50;1.00
3308;DHT22;1666;48.898;9.182;2023-04-01T10:59:57;10.50;1.00
3308;DHT22;1666;48.898;9.182;2023-04-01T11:02:58;10.50;1.00
3308;DHT22;1666;48.898;9.182;2023-04-01T11:06:08;10.70;1.00
3308;DHT22;1666;48.898;9.182;2023-04-01T11:18:17;10.70;1.00
3308;DHT22;1666;48.898;9.182;2023-04-01T11:21:25;10.90;1.00
3308;DHT22;1666;48.898;9.182;2023-04-01T11:24:24;10.80;1.00
3308;DHT22;1666;48.898;9.182;2023-04-01T11:27:05;10.90;1.00
3308;DHT22;1666;48.898;9.182;2023-04-01T11:29:47;11.00;1.00
3308;DHT22;1666;48.898;9.182;2023-04-01T11:32:46;11.10;1.00
3308;DHT22;1666;48.898;9.182;2023-04-01T11:35:29;11.10;1.00
3308;DHT22;1666;48.898;9.182;2023-04-01T11:38:10;11.30;1.00
3308;DHT22;1666;48.898;9.182;2023-04-01T11:40:47;11.20;1.00
3308;DHT22;1666;48.898;9.182;2023-04-01T11:43:24;11.40;1.00
3308;DHT22;1666;48.898;9.182;2023-04-01T11:46:03;11.20;1.00
3308;DHT22;1666;48.898;9.182;2023-04-01T11:48:49;11.20;1.00
3308;DHT22;1666;48.898;9.182;2023-04-01T11:51:46;11.30;1.00
3308;DHT22;1666;48.898;9.182;2023-04-01T11:54:28;11.40;1.00
3308;DHT22;1666;48.898;9.182;2023-04-01T11:57:17;11.40;1.00
3308;DHT22;1666;48.898;9.182;2023-04-01T12:00:00;11.50;1.00
3308;DHT22;1666;48.898;9.182;2023-04-01T12:02:40;11.50;1.00
3308;DHT22;1666;48.898;9.182;2023-04-01T12:05:34;11.50;1.00
3308;DHT22;1666;48.898;9.182;2023-04-01T12:08:15;11.30;1.00
3308;DHT22;1666;48.898;9.182;2023-04-01T12:10:57;11.30;1.00
3308;DHT22;1666;48.898;9.182;2023-04-01T12:13:38;11.40;1.00
3308;DHT22;1666;48.898;9.182;2023-04-01T12:16:36;11.40;1.00
3308;DHT22;1666;48.898;9.182;2023-04-01T12:19:14;11.50;1.00
3308;DHT22;1666;48.898;9.182;2023-04-01T12:21:59;11.60;1.00
3308;DHT22;1666;48.898;9.182;2023-04-01T12:24:45;11.60;1.00
3308;DHT22;1666;48.898;9.182;2023-04-01T12:27:41;11.50;1.00
3308;DHT22;1666;48.898;9.182;2023-04-01T12:33:56;11.70;1.00
3308;DHT22;1666;48.898;9.182;2023-04-01T12:36:40;11.70;1.00
3308;DHT22;1666;48.898;9.182;2023-04-01T12:39:44;11.70;1.00
3308;DHT22;1666;48.898;9.182;2023-04-01T12:42:31;11.80;1.00
3308;DHT22;1666;48.898;9.182;2023-04-01T12:45:28;11.80;1.00
3308;DHT22;1666;48.898;9.182;2023-04-01T12:48:06;11.70;1.00
3308;DHT22;1666;48.898;9.182;2023-04-01T12:51:11;11.60;1.00
3308;DHT22;1666;48.898;9.182;2023-04-01T12:56:52;11.60;1.00
3308;DHT22;1666;48.898;9.182;2023-04-01T12:59:44;11.60;1.00
3308;DHT22;1666;48.898;9.182;2023-04-01T13:02:28;11.50;1.00
3308;DHT22;1666;48.898;9.182;2023-04-01T13:05:24;11.40;1.00
3308;DHT22;1666;48.898;9.182;2023-04-01T13:08:13;11.50;1.00
3308;DHT22;1666;48.898;9.182;2023-04-01T13:10:56;11.40;1.00
3308;DHT22;1666;48.898;9.182;2023-04-01T13:14:01;11.50;1.00
3308;DHT22;1666;48.898;9.182;2023-04-01T13:16:46;11.30;1.00
3308;DHT22;1666;48.898;9.182;2023-04-01T13:19:21;11.10;1.00
3308;DHT22;1666;48.898;9.182;2023-04-01T13:21:58;10.90;1.00
3308;DHT22;1666;48.898;9.182;2023-04-01T13:24:42;10.80;1.00
3308;DHT22;1666;48.898;9.182;2023-04-01T13:27:18;10.70;1.00
3308;DHT22;1666;48.898;9.182;2023-04-01T13:30:00;10.70;1.00
3308;DHT22;1666;48.898;9.182;2023-04-01T13:32:39;10.70;1.00
3308;DHT22;1666;48.898;9.182;2023-04-01T13:35:30;10.70;1.00
3308;DHT22;1666;48.898;9.182;2023-04-01T13:38:31;10.70;1.00
3308;DHT22;1666;48.898;9.182;2023-04-01T13:41:12;10.70;1.00
3308;DHT22;1666;48.898;9.182;2023-04-01T13:43:49;10.80;1.00
3308;DHT22;1666;48.898;9.182;2023-04-01T13:46:51;10.90;1.00
3308;DHT22;1666;48.898;9.182;2023-04-01T13:49:36;10.90;1.00
3308;DHT22;1666;48.898;9.182;2023-04-01T13:52:27;10.90;1.00
3308;DHT22;1666;48.898;9.182;2023-04-01T14:01:00;10.60;1.00
3308;DHT22;1666;48.898;9.182;2023-04-01T14:03:54;10.60;1.00
3308;DHT22;1666;48.898;9.182;2023-04-01T14:06:31;10.50;1.00
3308;DHT22;1666;48.898;9.182;2023-04-01T14:09:25;10.60;1.00
3308;DHT22;1666;48.898;9.182;2023-04-01T14:12:04;10.60;1.00
3308;DHT22;1666;48.898;9.182;2023-04-01T14:14:44;10.70;1.00
3308;DHT22;1666;48.898;9.182;2023-04-01T14:17:29;10.80;1.00
3308;DHT22;1666;48.898;9.182;2023-04-01T14:23:19;10.80;1.00
3308;DHT22;1666;48.898;9.182;2023-04-01T14:26:07;11.00;1.00
3308;DHT22;1666;48.898;9.182;2023-04-01T14:28:46;11.00;1.00
3308;DHT22;1666;48.898;9.182;2023-04-01T14:31:31;10.70;1.00
3308;DHT22;1666;48.898;9.182;2023-04-01T14:34:15;10.80;1.00
3308;DHT22;1666;48.898;9.182;2023-04-01T14:37:08;11.10;1.00
3308;DHT22;1666;48.898;9.182;2023-04-01T14:39:56;10.90;1.00
3308;DHT22;1666;48.898;9.182;2023-04-01T14:42:49;10.90;1.00
3308;DHT22;1666;48.898;9.182;2023-04-01T14:48:25;10.90;1.00
3308;DHT22;1666;48.898;9.182;2023-04-01T14:51:08;10.90;1.00
3308;DHT22;1666;48.898;9.182;2023-04-01T14:53:44;10.80;1.00
3308;DHT22;1666;48.898;9.182;2023-04-01T14:56:36;11.00;1.00
3308;DHT22;1666;48.898;9.182;2023-04-01T14:59:14;11.10;1.00
3308;DHT22;1666;48.898;9.182;2023-04-01T15:01:51;11.10;1.00
3308;DHT22;1666;48.898;9.182;2023-04-01T15:04:37;11.00;1.00
3308;DHT22;1666;48.898;9.182;2023-04-01T15:07:54;10.90;1.00
3308;DHT22;1666;48.898;9.182;2023-04-01T15:13:55;11.10;1.00
3308;DHT22;1666;48.898;9.182;2023-04-01T15:16:34;11.20;1.00
3308;DHT22;1666;48.898;9.182;2023-04-01T15:19:14;11.10;1.00
3308;DHT22;1666;48.898;9.182;2023-04-01T15:22:00;11.10;1.00
3308;DHT22;1666;48.898;9.182;2023-04-01T15:24:41;11.00;1.00
3308;DHT22;1666;48.898;9.182;2023-04-01T15:27:25;11.00;1.00
3308;DHT22;1666;48.898;9.182;2023-04-01T15:30:21;11.20;1.00
3308;DHT22;1666;48.898;9.182;2023-04-01T15:33:06;11.00;1.00
3308;DHT22;1666;48.898;9.182;2023-04-01T15:35:45;11.20;1.00
3308;DHT22;1666;48.898;9.182;2023-04-01T15:38:24;11.20;1.00
3308;DHT22;1666;48.898;9.182;2023-04-01T15:41:04;11.20;1.00
3308;DHT22;1666;48.898;9.182;2023-04-01T15:43:41;11.20;1.00
3308;DHT22;1666;48.898;9.182;2023-04-01T15:46:29;11.20;1.00
3308;DHT22;1666;48.898;9.182;2023-04-01T15:49:15;11.10;1.00
3308;DHT22;1666;48.898;9.182;2023-04-01T15:51:58;11.00;1.00
3308;DHT22;1666;48.898;9.182;2023-04-01T15:54:45;11.00;1.00
3308;DHT22;1666;48.898;9.182;2023-04-01T15:57:27;11.00;1.00
3308;DHT22;1666;48.898;9.182;2023-04-01T16:00:09;10.90;1.00
3308;DHT22;1666;48.898;9.182;2023-04-01T16:02:47;10.90;1.00
3308;DHT22;1666;48.898;9.182;2023-04-01T16:05:30;10.90;1.00
3308;DHT22;1666;48.898;9.182;2023-04-01T16:08:23;10.80;1.00
3308;DHT22;1666;48.898;9.182;2023-04-01T16:11:14;10.80;1.00
3308;DHT22;1666;48.898;9.182;2023-04-01T16:13:54;10.80;1.00
3308;DHT22;1666;48.898;9.182;2023-04-01T16:16:35;10.80;1.00
3308;DHT22;1666;48.898;9.182;2023-04-01T16:19:20;10.80;1.00
3308;DHT22;1666;48.898;9.182;2023-04-01T16:21:57;10.80;1.00
3308;DHT22;1666;48.898;9.182;2023-04-01T16:24:33;10.70;1.00
3308;DHT22;1666;48.898;9.182;2023-04-01T16:27:09;10.70;1.00
3308;DHT22;1666;48.898;9.182;2023-04-01T16:29:45;10.70;1.00
3308;DHT22;1666;48.898;9.182;2023-04-01T16:32:23;10.70;1.00
3308;DHT22;1666;48.898;9.182;2023-04-01T16:35:12;10.70;1.00
3308;DHT22;1666;48.898;9.182;2023-04-01T16:37:48;10.70;1.00
3308;DHT22;1666;48.898;9.182;2023-04-01T16:40:25;10.70;1.00
3308;DHT22;1666;48.898;9.182;2023-04-01T16:43:11;10.70;1.00
3308;DHT22;1666;48.898;9.182;2023-04-01T16:45:47;10.70;1.00
3308;DHT22;1666;48.898;9.182;2023-04-01T16:48:27;10.70;1.00
3308;DHT22;1666;48.898;9.182;2023-04-01T16:51:04;10.70;1.00
3308;DHT22;1666;48.898;9.182;2023-04-01T16:53:42;10.70;1.00
3308;DHT22;1666;48.898;9.182;2023-04-01T16:56:15;10.70;1.00
3308;DHT22;1666;48.898;9.182;2023-04-01T16:58:57;10.70;1.00
3308;DHT22;1666;48.898;9.182;2023-04-01T17:01:40;10.70;1.00
3308;DHT22;1666;48.898;9.182;2023-04-01T17:04:18;10.60;1.00
3308;DHT22;1666;48.898;9.182;2023-04-01T17:06:56;10.70;1.00
3308;DHT22;1666;48.898;9.182;2023-04-01T17:12:33;10.60;1.00
3308;DHT22;1666;48.898;9.182;2023-04-01T17:15:12;10.60;1.00
3308;DHT22;1666;48.898;9.182;2023-04-01T17:17:53;10.60;1.00
3308;DHT22;1666;48.898;9.182;2023-04-01T17:20:43;10.60;1.00
3308;DHT22;1666;48.898;9.182;2023-04-01T17:23:27;10.50;1.00
3308;DHT22;1666;48.898;9.182;2023-04-01T17:26:17;10.50;1.00
3308;DHT22;1666;48.898;9.182;2023-04-01T17:28:53;10.40;1.00
3308;DHT22;1666;48.898;9.182;2023-04-01T17:31:37;10.50;1.00
3308;DHT22;1666;48.898;9.182;2023-04-01T17:37:10;10.50;1.00
3308;DHT22;1666;48.898;9.182;2023-04-01T17:40:08;10.50;1.00
3308;DHT22;1666;48.898;9.182;2023-04-01T17:42:46;10.50;1.00
3308;DHT22;1666;48.898;9.182;2023-04-01T17:45:21;10.50;1.00
3308;DHT22;1666;48.898;9.182;2023-04-01T17:48:01;10.50;1.00
3308;DHT22;1666;48.898;9.182;2023-04-01T17:50:50;10.50;1.00
3308;DHT22;1666;48.898;9.182;2023-04-01T17:53:32;10.40;1.00
3308;DHT22;1666;48.898;9.182;2023-04-01T17:56:11;10.40;1.00
3308;DHT22;1666;48.898;9.182;2023-04-01T17:58:45;10.40;1.00
3308;DHT22;1666;48.898;9.182;2023-04-01T18:01:25;10.40;1.00
3308;DHT22;1666;48.898;9.182;2023-04-01T18:04:15;10.30;1.00
3308;DHT22;1666;48.898;9.182;2023-04-01T18:07:00;10.20;1.00
3308;DHT22;1666;48.898;9.182;2023-04-01T18:09:43;10.20;1.00
3308;DHT22;1666;48.898;9.182;2023-04-01T18:12:23;10.20;1.00
3308;DHT22;1666;48.898;9.182;2023-04-01T18:15:08;10.10;1.00
3308;DHT22;1666;48.898;9.182;2023-04-01T18:17:50;10.10;1.00
3308;DHT22;1666;48.898;9.182;2023-04-01T18:20:32;10.00;1.00
3308;DHT22;1666;48.898;9.182;2023-04-01T18:23:12;10.00;1.00
3308;DHT22;1666;48.898;9.182;2023-04-01T18:25:46;10.00;1.00
3308;DHT22;1666;48.898;9.182;2023-04-01T18:28:35;9.90;1.00
3308;DHT22;1666;48.898;9.182;2023-04-01T18:31:10;9.90;1.00
3308;DHT22;1666;48.898;9.182;2023-04-01T18:33:50;9.90;1.00
3308;DHT22;1666;48.898;9.182;2023-04-01T18:36:33;9.80;1.00
3308;DHT22;1666;48.898;9.182;2023-04-01T18:39:11;9.80;1.00
3308;DHT22;1666;48.898;9.182;2023-04-01T18:41:52;9.80;1.00
3308;DHT22;1666;48.898;9.182;2023-04-01T18:44:31;9.80;1.00
3308;DHT22;1666;48.898;9.182;2023-04-01T18:47:14;9.80;1.00
3308;DHT22;1666;48.898;9.182;2023-04-01T18:49:50;9.80;1.00
3308;DHT22;1666;48.898;9.182;2023-04-01T18:52:23;9.70;1.00
3308;DHT22;1666;48.898;9.182;2023-04-01T18:55:24;9.70;1.00
3308;DHT22;1666;48.898;9.182;2023-04-01T19:01:14;9.70;1.00